• Join FlightAware (Why Join?)
  • Login
  • US Flag 
07:47AM EDT


 

Airport Tracker/Info


-or-


 

Live Flight TrackerFlight Track Log ✈ N675MC ✈ 08-Sep-2013 ✈ KATL - KORD

Flight Track Log - Related Links

Times and Time Zones

All times are in EDT time to prevent confusion due to time zone crossing. See the N675MC flight status page for this flight to view local times or setup timezone preferences in your user account.

Time Position Orientation Groundspeed Altitude Reporting Facility
EDT Latitude Longitude Course Direction KTS MPH feet Rate Location/Type
11:20AM 33.6536 -84.4806 349° North 440 506 2,400  Level Atlanta Center
11:21AM 33.6761 -84.5681 287° West 315 362 4,600 2,160 Climbing Atlanta Center
11:22AM 33.7408 -84.5983 339° North 254 292 6,800 2,280 Climbing Atlanta Center
11:23AM 34.0568 -84.5847 349° North  Level Estimated
11:23AM 33.8158 -84.6014 358° North 276 318 9,200  Level Atlanta Center
11:24AM 34.1661 -84.5986 354° North  Level FlightAware Approximate
11:24AM 33.8869 -84.6069 356° North 281 323 10,700  Level Atlanta Center
11:25AM 34.2754 -84.6126 354° North  Level FlightAware Approximate
11:25AM 33.9767 -84.6100 358° North 298 343 11,700  Level Atlanta Center
11:26AM 34.3802 -84.6528 349° North  Level Estimated
11:26AM 34.0725 -84.6131 358° North 335 386 13,100  Level Atlanta Center
11:27AM 34.1769 -84.6214 356° North 359 413 14,100 1,320 Climbing Atlanta Center
11:28AM 34.2958 -84.6297 357° North 372 428 15,800 1,800 Climbing Atlanta Center
11:29AM 34.4044 -84.6356 357° North 391 450 17,800 1,680 Climbing Atlanta Center
11:30AM 34.5169 -84.6489 354° North 391 450 19,200 1,320 Climbing Atlanta Center
11:31AM 34.6297 -84.6647 353° North 396 456 20,500 1,260 Climbing Atlanta Center
11:32AM 34.7400 -84.6783 354° North 402 463 21,800 1,260 Climbing Atlanta Center
11:33AM 34.8569 -84.7019 351° North 408 470 23,100 1,320 Climbing Atlanta Center
11:34AM 34.9714 -84.7308 348° North 414 476 24,500 1,380 Climbing Atlanta Center
11:35AM 35.0839 -84.7722 343° North 414 476 25,900 1,080 Climbing Atlanta Center
11:36AM 35.1983 -84.8139 343° North 414 476 26,700 780 Climbing Atlanta Center
11:37AM 35.3150 -84.8558 344° North 419 482 27,500 600 Climbing Atlanta Center
11:38AM 35.4317 -84.8978 344° North 425 489 28,000 240 Climbing Atlanta Center
11:39AM 35.5522 -84.9372 345° North 436 502 28,000  Level Atlanta Center
11:40AM 35.6750 -84.9719 347° North 441 507 28,000  Level Atlanta Center
11:41AM 35.7853 -85.0064 346° North 441 507 28,000  Level Atlanta Center
11:43AM 35.9719 -85.0553 348° North 453 521 28,000  Level Indianapolis Center
11:44AM 36.0814 -85.0819 349° North 451 519 28,000 120 Level Indianapolis Center
11:45AM 36.2297 -85.1214 348° North 451 519 28,300 600 Climbing Indianapolis Center
11:46AM 36.3525 -85.1542 348° North 450 518 29,300 780 Climbing Indianapolis Center
11:47AM 36.4769 -85.1806 350° North 451 519 30,000 300 Climbing Indianapolis Center
11:48AM 36.6028 -85.2103 349° North 458 527 30,000  Level Indianapolis Center
11:49AM 36.7272 -85.2400 349° North 456 525 30,000  Level Indianapolis Center
11:50AM 36.8508 -85.2711 349° North 453 521 30,000  Level Indianapolis Center
11:51AM 36.9756 -85.2972 351° North 453 521 30,000  Level Indianapolis Center
11:52AM 37.1025 -85.3231 351° North 447 514 30,000  Level Indianapolis Center
11:53AM 37.2478 -85.3556 350° North 450 518 30,000  Level Indianapolis Center
11:54AM 37.3728 -85.3831 350° North 452 520 30,000  Level Indianapolis Center
11:55AM 37.4961 -85.4075 351° North 448 516 30,000  Level Indianapolis Center
11:56AM 37.6183 -85.4408 348° North 447 514 30,000  Level Indianapolis Center
11:57AM 37.7383 -85.4739 348° North 442 509 30,000  Level Indianapolis Center
11:58AM 37.8628 -85.5042 349° North 453 521 30,000  Level Indianapolis Center
11:59AM 37.9839 -85.5353 349° North 448 516 30,000  Level Indianapolis Center
12:00PM 38.1031 -85.5678 348° North 439 505 30,000  Level Indianapolis Center
12:01PM 38.2461 -85.6042 349° North 436 502 30,000  Level Indianapolis Center
12:02PM 38.3636 -85.6381 347° North 434 499 30,000  Level Indianapolis Center
12:03PM 38.4833 -85.6503 355° North 431 496 30,000  Level Indianapolis Center
12:05PM 38.6031 -85.6361 North 432 497 30,000  Level Indianapolis Center
12:06PM 38.7300 -85.6253 North 430 495 30,000  Level Indianapolis Center
12:07PM 38.8472 -85.6275 359° North 425 489 30,000  Level Indianapolis Center
12:08PM 38.9664 -85.6289 359° North 428 493 30,000  Level Indianapolis Center
12:09PM 39.0839 -85.6217 North 426 490 30,000  Level Indianapolis Center
12:10PM 39.2019 -85.6125 North 426 490 30,000  Level Indianapolis Center
12:11PM 39.3433 -85.6019 North 428 493 30,000 -300 Level Indianapolis Center
12:12PM 39.4625 -85.5947 North 431 496 29,500 -480 Descending Indianapolis Center
12:13PM 39.5839 -85.5875 North 438 504 29,100 -540 Descending Indianapolis Center
12:14PM 39.7064 -85.5806 North 442 509 28,500 -660 Descending Indianapolis Center
12:15PM 39.8283 -85.5800 360° North 443 510 27,800 -780 Descending Indianapolis Center
12:16PM 39.9753 -85.5853 358° North 443 510 26,900 -840 Descending Indianapolis Center
12:17PM 40.0958 -85.5867 359° North 438 504 26,100 -780 Descending Indianapolis Center
12:18PM 40.2169 -85.5956 357° North 438 504 25,400 -780 Descending Indianapolis Center
12:19PM 40.3311 -85.6378 344° North 432 497 24,600 -720 Descending Indianapolis Center
12:20PM 40.4442 -85.6844 343° North 429 494 24,000 -480 Descending Indianapolis Center
12:21PM 40.5303 -85.7875 318° Northwest 423 487 23,700 -540 Descending Indianapolis Center
12:22PM 40.6275 -85.9222 314° West 426 490 23,000 -360 Descending Indianapolis Center
12:23PM 40.7072 -86.0306 314° West 418 481 23,000  Level Indianapolis Center
12:24PM 40.7867 -86.1381 314° West 412 474 23,000  Level Indianapolis Center
12:25PM 40.8664 -86.2464 314° West 414 476 23,000  Level Indianapolis Center
12:26PM 40.9461 -86.3528 315° West 411 473 23,000  Level Indianapolis Center
12:27PM 41.0233 -86.4631 313° West 409 471 23,000  Level Indianapolis Center
12:28PM 41.1147 -86.5972 312° West 411 473 23,000 -540 Level Indianapolis Center
12:29PM 41.1936 -86.7100 313° West 415 478 21,900 -1,680 Descending Indianapolis Center
12:30PM 41.2711 -86.8178 314° West 410 472 19,600 -2,580 Descending Indianapolis Center
12:31PM 41.3644 -86.9425 315° West 397 457 16,200 -2,580 Descending Chicago Center
12:32PM 41.4386 -87.0422 315° West 386 444 13,900 -1,860 Descending Chicago Center
12:34PM 41.4969 -87.1503 306° West 367 422 12,400 -1,200 Descending Chicago Center
12:35PM 41.5642 -87.2750 306° West 352 405 11,400 -960 Descending Chicago Center
12:36PM 41.6181 -87.3897 302° West 362 417 10,500 -720 Descending Chicago Center
12:37PM 41.6756 -87.4958 306° West 360 414 10,000 -540 Descending Chicago Center
12:38PM 41.7289 -87.5797 310° West 310 357 9,500 -1,140 Descending Chicago Center
12:39PM 41.7847 -87.6536 315° West 286 329 7,700 -1,260 Descending Chicago Center
12:40PM 41.8189 -87.7575 294° West 270 311 7,000 -720 Descending Chicago Center
12:41PM 41.8083 -87.8472 261° West 253 291 6,300 -1,020 Descending Chicago Center
12:42PM 41.7869 -87.9286 251° West 241 277 5,000 -1,020 Descending Chicago Center
12:43PM 41.7556 -88.0025 240° Southwest 239 275 4,300 -480 Descending Chicago Center
12:44PM 41.7183 -88.0706 234° Southwest 212 244 4,100 -180 Descending Chicago Center
12:45PM 41.7661 -88.0811 351° North 202 232 4,000 -60 Descending Chicago Center
12:46PM 41.8164 -88.0603 17° North 195 224 4,000 -420 Level Chicago Center
12:47PM 41.8528 -88.0192 40° Northeast 177 204 3,200 -780 Descending Chicago Center
12:48PM 41.8822 -87.9836 42° Northeast 158 182 2,500 -780 Descending Chicago Center
12:49PM 41.9117 -87.9489 41° Northeast 147 169 1,700 -600 Descending Chicago Center
12:50PM 41.9453 -87.9103 41° Northeast 145 167 1,300 -420 Descending Chicago Center